sensor_id;sensor_type;location;lat;lon;timestamp;P1;durP1;ratioP1;P2;durP2;ratioP2
42964;SDS011;28604;51.204;22.552;2023-03-01T00:01:03;176.93;;;70.75;;
42964;SDS011;28604;51.204;22.552;2023-03-01T00:03:32;171.95;;;71.55;;
42964;SDS011;28604;51.204;22.552;2023-03-01T00:05:58;183.82;;;73.82;;
42964;SDS011;28604;51.204;22.552;2023-03-01T00:08:25;177.13;;;71.65;;
42964;SDS011;28604;51.204;22.552;2023-03-01T00:11:01;175.52;;;70.28;;
42964;SDS011;28604;51.204;22.552;2023-03-01T00:13:30;182.30;;;72.68;;
42964;SDS011;28604;51.204;22.552;2023-03-01T00:15:57;164.95;;;68.45;;
42964;SDS011;28604;51.204;22.552;2023-03-01T00:18:23;174.55;;;69.68;;
42964;SDS011;28604;51.204;22.552;2023-03-01T00:20:53;171.50;;;68.90;;
42964;SDS011;28604;51.204;22.552;2023-03-01T00:23:20;167.77;;;66.60;;
42964;SDS011;28604;51.204;22.552;2023-03-01T00:25:47;161.52;;;66.95;;
42964;SDS011;28604;51.204;22.552;2023-03-01T00:28:13;163.45;;;65.13;;
42964;SDS011;28604;51.204;22.552;2023-03-01T00:30:40;150.70;;;62.50;;
42964;SDS011;28604;51.204;22.552;2023-03-01T00:33:06;146.35;;;58.85;;
42964;SDS011;28604;51.204;22.552;2023-03-01T00:35:32;152.45;;;59.67;;
42964;SDS011;28604;51.204;22.552;2023-03-01T00:37:59;142.50;;;58.58;;
42964;SDS011;28604;51.204;22.552;2023-03-01T00:40:25;141.02;;;57.05;;
42964;SDS011;28604;51.204;22.552;2023-03-01T00:42:52;127.10;;;54.80;;
42964;SDS011;28604;51.204;22.552;2023-03-01T00:45:18;135.98;;;56.05;;
42964;SDS011;28604;51.204;22.552;2023-03-01T00:47:44;135.95;;;57.88;;
42964;SDS011;28604;51.204;22.552;2023-03-01T00:50:11;124.13;;;53.22;;
42964;SDS011;28604;51.204;22.552;2023-03-01T00:52:37;126.97;;;52.85;;
42964;SDS011;28604;51.204;22.552;2023-03-01T00:55:03;127.38;;;50.80;;
42964;SDS011;28604;51.204;22.552;2023-03-01T00:57:30;118.00;;;52.10;;
42964;SDS011;28604;51.204;22.552;2023-03-01T00:59:56;107.13;;;45.90;;
42964;SDS011;28604;51.204;22.552;2023-03-01T01:02:22;118.03;;;47.50;;
42964;SDS011;28604;51.204;22.552;2023-03-01T01:04:48;115.38;;;45.67;;
42964;SDS011;28604;51.204;22.552;2023-03-01T01:07:14;114.32;;;46.13;;
42964;SDS011;28604;51.204;22.552;2023-03-01T01:09:40;107.07;;;45.78;;
42964;SDS011;28604;51.204;22.552;2023-03-01T01:12:07;103.13;;;43.20;;
42964;SDS011;28604;51.204;22.552;2023-03-01T01:14:33;110.85;;;44.63;;
42964;SDS011;28604;51.204;22.552;2023-03-01T01:16:59;95.70;;;43.03;;
42964;SDS011;28604;51.204;22.552;2023-03-01T01:19:25;96.97;;;41.10;;
42964;SDS011;28604;51.204;22.552;2023-03-01T01:21:52;96.05;;;40.22;;
42964;SDS011;28604;51.204;22.552;2023-03-01T01:24:18;88.38;;;39.35;;
42964;SDS011;28604;51.204;22.552;2023-03-01T01:26:44;93.50;;;39.60;;
42964;SDS011;28604;51.204;22.552;2023-03-01T01:29:12;89.95;;;39.95;;
42964;SDS011;28604;51.204;22.552;2023-03-01T01:31:39;85.30;;;37.72;;
42964;SDS011;28604;51.204;22.552;2023-03-01T01:34:06;89.45;;;39.03;;
42964;SDS011;28604;51.204;22.552;2023-03-01T01:36:35;82.18;;;34.33;;
42964;SDS011;28604;51.204;22.552;2023-03-01T01:39:01;81.90;;;34.63;;
42964;SDS011;28604;51.204;22.552;2023-03-01T01:41:28;79.57;;;34.15;;
42964;SDS011;28604;51.204;22.552;2023-03-01T01:49:37;74.97;;;33.03;;
42964;SDS011;28604;51.204;22.552;2023-03-01T01:54:50;81.15;;;34.83;;
42964;SDS011;28604;51.204;22.552;2023-03-01T01:57:34;77.93;;;33.03;;
42964;SDS011;28604;51.204;22.552;2023-03-01T02:00:05;81.57;;;34.53;;
42964;SDS011;28604;51.204;22.552;2023-03-01T02:02:39;81.28;;;34.58;;
42964;SDS011;28604;51.204;22.552;2023-03-01T02:05:09;85.25;;;34.47;;
42964;SDS011;28604;51.204;22.552;2023-03-01T02:07:40;84.25;;;35.05;;
42964;SDS011;28604;51.204;22.552;2023-03-01T02:10:08;84.00;;;36.72;;
42964;SDS011;28604;51.204;22.552;2023-03-01T02:12:35;88.88;;;37.30;;
42964;SDS011;28604;51.204;22.552;2023-03-01T02:15:02;96.22;;;38.50;;
42964;SDS011;28604;51.204;22.552;2023-03-01T02:17:28;99.05;;;41.28;;
42964;SDS011;28604;51.204;22.552;2023-03-01T02:20:00;106.68;;;46.17;;
42964;SDS011;28604;51.204;22.552;2023-03-01T02:22:36;78.88;;;33.47;;
42964;SDS011;28604;51.204;22.552;2023-03-01T02:30:45;105.50;;;45.30;;
42964;SDS011;28604;51.204;22.552;2023-03-01T02:33:33;104.65;;;44.67;;
42964;SDS011;28604;51.204;22.552;2023-03-01T02:36:02;101.03;;;45.72;;
42964;SDS011;28604;51.204;22.552;2023-03-01T02:38:31;100.82;;;43.53;;
42964;SDS011;28604;51.204;22.552;2023-03-01T02:40:57;103.00;;;42.60;;
42964;SDS011;28604;51.204;22.552;2023-03-01T02:43:26;93.20;;;41.58;;
42964;SDS011;28604;51.204;22.552;2023-03-01T02:45:57;101.70;;;41.85;;
42964;SDS011;28604;51.204;22.552;2023-03-01T02:48:28;99.75;;;43.53;;
42964;SDS011;28604;51.204;22.552;2023-03-01T02:51:05;90.72;;;40.53;;
42964;SDS011;28604;51.204;22.552;2023-03-01T02:56:21;89.93;;;40.17;;
42964;SDS011;28604;51.204;22.552;2023-03-01T02:58:48;93.28;;;39.72;;
42964;SDS011;28604;51.204;22.552;2023-03-01T03:01:20;94.97;;;39.38;;
42964;SDS011;28604;51.204;22.552;2023-03-01T03:03:46;92.95;;;39.60;;
42964;SDS011;28604;51.204;22.552;2023-03-01T03:06:13;90.13;;;39.97;;
42964;SDS011;28604;51.204;22.552;2023-03-01T03:08:41;91.25;;;38.20;;
42964;SDS011;28604;51.204;22.552;2023-03-01T03:11:06;84.32;;;37.97;;
42964;SDS011;28604;51.204;22.552;2023-03-01T03:13:34;83.18;;;38.78;;
42964;SDS011;28604;51.204;22.552;2023-03-01T03:16:00;92.47;;;39.53;;
42964;SDS011;28604;51.204;22.552;2023-03-01T03:18:29;104.13;;;41.42;;
42964;SDS011;28604;51.204;22.552;2023-03-01T03:20:54;86.63;;;39.85;;
42964;SDS011;28604;51.204;22.552;2023-03-01T03:23:21;88.20;;;38.75;;
42964;SDS011;28604;51.204;22.552;2023-03-01T03:25:50;91.25;;;41.25;;
42964;SDS011;28604;51.204;22.552;2023-03-01T03:28:17;92.00;;;41.05;;
42964;SDS011;28604;51.204;22.552;2023-03-01T03:30:43;83.30;;;37.22;;
42964;SDS011;28604;51.204;22.552;2023-03-01T03:33:10;82.13;;;34.78;;
42964;SDS011;28604;51.204;22.552;2023-03-01T03:35:41;94.03;;;37.78;;
42964;SDS011;28604;51.204;22.552;2023-03-01T03:38:09;88.68;;;38.47;;
42964;SDS011;28604;51.204;22.552;2023-03-01T03:40:42;82.28;;;36.20;;
42964;SDS011;28604;51.204;22.552;2023-03-01T03:43:10;90.25;;;40.63;;
42964;SDS011;28604;51.204;22.552;2023-03-01T03:45:38;90.60;;;38.63;;
42964;SDS011;28604;51.204;22.552;2023-03-01T03:48:05;88.32;;;40.47;;
42964;SDS011;28604;51.204;22.552;2023-03-01T03:50:34;87.25;;;40.75;;
42964;SDS011;28604;51.204;22.552;2023-03-01T03:53:01;80.63;;;35.92;;
42964;SDS011;28604;51.204;22.552;2023-03-01T03:55:29;85.43;;;38.42;;
42964;SDS011;28604;51.204;22.552;2023-03-01T03:57:59;85.55;;;37.97;;
42964;SDS011;28604;51.204;22.552;2023-03-01T04:00:32;84.95;;;38.13;;
42964;SDS011;28604;51.204;22.552;2023-03-01T04:03:00;81.50;;;36.83;;
42964;SDS011;28604;51.204;22.552;2023-03-01T04:05:27;81.75;;;36.88;;
42964;SDS011;28604;51.204;22.552;2023-03-01T04:07:53;85.53;;;37.95;;
42964;SDS011;28604;51.204;22.552;2023-03-01T04:10:27;82.47;;;37.45;;
42964;SDS011;28604;51.204;22.552;2023-03-01T04:12:54;78.35;;;35.25;;
42964;SDS011;28604;51.204;22.552;2023-03-01T04:15:23;82.40;;;36.03;;
42964;SDS011;28604;51.204;22.552;2023-03-01T04:17:51;72.97;;;34.38;;
42964;SDS011;28604;51.204;22.552;2023-03-01T04:20:19;69.13;;;31.63;;
42964;SDS011;28604;51.204;22.552;2023-03-01T04:23:00;72.82;;;34.78;;
42964;SDS011;28604;51.204;22.552;2023-03-01T04:25:37;90.65;;;37.30;;
42964;SDS011;28604;51.204;22.552;2023-03-01T04:28:04;77.13;;;35.28;;
42964;SDS011;28604;51.204;22.552;2023-03-01T04:30:31;79.30;;;36.67;;
42964;SDS011;28604;51.204;22.552;2023-03-01T04:33:04;84.68;;;37.13;;
42964;SDS011;28604;51.204;22.552;2023-03-01T04:35:32;76.53;;;34.03;;
42964;SDS011;28604;51.204;22.552;2023-03-01T04:37:59;84.68;;;37.20;;
42964;SDS011;28604;51.204;22.552;2023-03-01T04:40:25;82.18;;;35.90;;
42964;SDS011;28604;51.204;22.552;2023-03-01T04:42:52;77.50;;;36.38;;
42964;SDS011;28604;51.204;22.552;2023-03-01T04:45:17;72.78;;;34.80;;
42964;SDS011;28604;51.204;22.552;2023-03-01T04:47:44;76.25;;;35.45;;
42964;SDS011;28604;51.204;22.552;2023-03-01T04:50:12;80.50;;;34.92;;
42964;SDS011;28604;51.204;22.552;2023-03-01T04:52:40;89.03;;;38.90;;
42964;SDS011;28604;51.204;22.552;2023-03-01T04:55:07;84.30;;;37.38;;
42964;SDS011;28604;51.204;22.552;2023-03-01T04:57:34;89.90;;;40.47;;
42964;SDS011;28604;51.204;22.552;2023-03-01T04:59:59;78.57;;;37.03;;
42964;SDS011;28604;51.204;22.552;2023-03-01T05:02:26;86.82;;;39.40;;
42964;SDS011;28604;51.204;22.552;2023-03-01T05:04:51;82.38;;;38.33;;
42964;SDS011;28604;51.204;22.552;2023-03-01T05:07:17;90.95;;;40.03;;
42964;SDS011;28604;51.204;22.552;2023-03-01T05:09:46;85.18;;;39.08;;
42964;SDS011;28604;51.204;22.552;2023-03-01T05:12:13;85.40;;;38.83;;
42964;SDS011;28604;51.204;22.552;2023-03-01T05:14:40;90.95;;;41.13;;
42964;SDS011;28604;51.204;22.552;2023-03-01T05:17:06;98.28;;;39.55;;
42964;SDS011;28604;51.204;22.552;2023-03-01T05:19:32;85.32;;;39.38;;
42964;SDS011;28604;51.204;22.552;2023-03-01T05:21:59;82.40;;;39.22;;
42964;SDS011;28604;51.204;22.552;2023-03-01T05:24:32;82.40;;;38.85;;
42964;SDS011;28604;51.204;22.552;2023-03-01T05:30:53;89.28;;;38.40;;
42964;SDS011;28604;51.204;22.552;2023-03-01T05:33:20;91.28;;;40.65;;
42964;SDS011;28604;51.204;22.552;2023-03-01T05:35:47;89.45;;;40.60;;
42964;SDS011;28604;51.204;22.552;2023-03-01T05:38:14;87.18;;;41.40;;
42964;SDS011;28604;51.204;22.552;2023-03-01T05:40:44;90.50;;;39.55;;
42964;SDS011;28604;51.204;22.552;2023-03-01T05:43:12;100.05;;;42.38;;
42964;SDS011;28604;51.204;22.552;2023-03-01T05:45:39;91.50;;;42.30;;
42964;SDS011;28604;51.204;22.552;2023-03-01T05:48:06;94.15;;;43.40;;
42964;SDS011;28604;51.204;22.552;2023-03-01T05:50:34;92.22;;;41.28;;
42964;SDS011;28604;51.204;22.552;2023-03-01T05:53:11;86.20;;;40.72;;
42964;SDS011;28604;51.204;22.552;2023-03-01T05:55:46;94.45;;;41.83;;
42964;SDS011;28604;51.204;22.552;2023-03-01T05:58:17;96.15;;;42.90;;
42964;SDS011;28604;51.204;22.552;2023-03-01T06:00:45;92.30;;;41.53;;
42964;SDS011;28604;51.204;22.552;2023-03-01T06:03:13;95.47;;;40.72;;
42964;SDS011;28604;51.204;22.552;2023-03-01T06:05:41;90.88;;;40.20;;
42964;SDS011;28604;51.204;22.552;2023-03-01T06:08:08;88.82;;;42.20;;
42964;SDS011;28604;51.204;22.552;2023-03-01T06:10:35;96.30;;;41.28;;
42964;SDS011;28604;51.204;22.552;2023-03-01T06:13:01;87.28;;;39.65;;
42964;SDS011;28604;51.204;22.552;2023-03-01T06:15:27;90.38;;;41.08;;
42964;SDS011;28604;51.204;22.552;2023-03-01T06:17:54;80.72;;;37.42;;
42964;SDS011;28604;51.204;22.552;2023-03-01T06:20:23;81.60;;;38.03;;
42964;SDS011;28604;51.204;22.552;2023-03-01T06:22:50;90.90;;;41.25;;
42964;SDS011;28604;51.204;22.552;2023-03-01T06:25:19;84.20;;;38.75;;
42964;SDS011;28604;51.204;22.552;2023-03-01T06:27:47;88.05;;;38.92;;
42964;SDS011;28604;51.204;22.552;2023-03-01T06:30:15;89.40;;;38.13;;
42964;SDS011;28604;51.204;22.552;2023-03-01T06:32:42;87.80;;;38.15;;
42964;SDS011;28604;51.204;22.552;2023-03-01T06:35:09;90.18;;;40.47;;
42964;SDS011;28604;51.204;22.552;2023-03-01T06:37:36;81.32;;;38.03;;
42964;SDS011;28604;51.204;22.552;2023-03-01T06:40:03;93.53;;;39.20;;
42964;SDS011;28604;51.204;22.552;2023-03-01T06:42:36;79.22;;;38.90;;
42964;SDS011;28604;51.204;22.552;2023-03-01T06:45:04;80.25;;;37.15;;
42964;SDS011;28604;51.204;22.552;2023-03-01T06:47:31;76.38;;;34.83;;
42964;SDS011;28604;51.204;22.552;2023-03-01T06:50:02;81.88;;;36.22;;
42964;SDS011;28604;51.204;22.552;2023-03-01T06:52:29;79.30;;;38.10;;
42964;SDS011;28604;51.204;22.552;2023-03-01T06:54:55;85.03;;;36.50;;
42964;SDS011;28604;51.204;22.552;2023-03-01T06:57:21;84.53;;;36.92;;
42964;SDS011;28604;51.204;22.552;2023-03-01T06:59:47;81.90;;;35.50;;
42964;SDS011;28604;51.204;22.552;2023-03-01T07:02:13;71.05;;;36.15;;
42964;SDS011;28604;51.204;22.552;2023-03-01T07:04:41;76.70;;;34.92;;
42964;SDS011;28604;51.204;22.552;2023-03-01T07:07:07;82.90;;;36.35;;
42964;SDS011;28604;51.204;22.552;2023-03-01T07:09:34;70.38;;;33.80;;
42964;SDS011;28604;51.204;22.552;2023-03-01T07:11:59;66.82;;;33.75;;
42964;SDS011;28604;51.204;22.552;2023-03-01T07:14:26;71.13;;;33.15;;
42964;SDS011;28604;51.204;22.552;2023-03-01T07:16:52;72.10;;;34.67;;
42964;SDS011;28604;51.204;22.552;2023-03-01T07:19:19;74.03;;;34.45;;
42964;SDS011;28604;51.204;22.552;2023-03-01T07:21:45;71.22;;;34.00;;
42964;SDS011;28604;51.204;22.552;2023-03-01T07:24:12;66.47;;;32.35;;
42964;SDS011;28604;51.204;22.552;2023-03-01T07:26:38;64.70;;;31.42;;
42964;SDS011;28604;51.204;22.552;2023-03-01T07:29:04;59.63;;;29.60;;
42964;SDS011;28604;51.204;22.552;2023-03-01T07:31:31;57.97;;;30.13;;
42964;SDS011;28604;51.204;22.552;2023-03-01T07:33:58;58.70;;;30.70;;
42964;SDS011;28604;51.204;22.552;2023-03-01T07:36:24;59.65;;;31.42;;
42964;SDS011;28604;51.204;22.552;2023-03-01T07:38:50;59.70;;;30.70;;
42964;SDS011;28604;51.204;22.552;2023-03-01T07:41:17;59.13;;;29.15;;
42964;SDS011;28604;51.204;22.552;2023-03-01T07:43:43;58.78;;;28.35;;
42964;SDS011;28604;51.204;22.552;2023-03-01T07:46:09;46.80;;;24.75;;
42964;SDS011;28604;51.204;22.552;2023-03-01T07:48:35;51.65;;;26.48;;
42964;SDS011;28604;51.204;22.552;2023-03-01T07:51:01;47.40;;;24.67;;
42964;SDS011;28604;51.204;22.552;2023-03-01T07:53:29;49.75;;;26.90;;
42964;SDS011;28604;51.204;22.552;2023-03-01T07:58:38;42.67;;;24.63;;
42964;SDS011;28604;51.204;22.552;2023-03-01T08:01:10;44.72;;;23.10;;
42964;SDS011;28604;51.204;22.552;2023-03-01T08:03:38;41.63;;;22.75;;
42964;SDS011;28604;51.204;22.552;2023-03-01T08:06:05;46.33;;;23.58;;
42964;SDS011;28604;51.204;22.552;2023-03-01T08:08:33;42.63;;;23.02;;
42964;SDS011;28604;51.204;22.552;2023-03-01T08:11:00;38.35;;;22.60;;
42964;SDS011;28604;51.204;22.552;2023-03-01T08:13:27;43.03;;;23.58;;
42964;SDS011;28604;51.204;22.552;2023-03-01T08:15:53;41.53;;;21.50;;
42964;SDS011;28604;51.204;22.552;2023-03-01T08:18:20;36.80;;;21.90;;
42964;SDS011;28604;51.204;22.552;2023-03-01T08:20:46;40.22;;;21.20;;
42964;SDS011;28604;51.204;22.552;2023-03-01T08:23:13;36.53;;;21.27;;
42964;SDS011;28604;51.204;22.552;2023-03-01T08:25:39;40.38;;;23.98;;
42964;SDS011;28604;51.204;22.552;2023-03-01T08:28:05;39.75;;;22.67;;
42964;SDS011;28604;51.204;22.552;2023-03-01T08:30:31;43.92;;;24.58;;
42964;SDS011;28604;51.204;22.552;2023-03-01T08:32:57;36.22;;;22.60;;
42964;SDS011;28604;51.204;22.552;2023-03-01T08:35:23;38.20;;;22.05;;
42964;SDS011;28604;51.204;22.552;2023-03-01T08:37:50;37.00;;;21.65;;
42964;SDS011;28604;51.204;22.552;2023-03-01T08:40:17;36.67;;;21.80;;
42964;SDS011;28604;51.204;22.552;2023-03-01T08:42:43;37.38;;;22.23;;
42964;SDS011;28604;51.204;22.552;2023-03-01T08:45:09;42.50;;;21.70;;
42964;SDS011;28604;51.204;22.552;2023-03-01T08:47:36;38.33;;;22.13;;
42964;SDS011;28604;51.204;22.552;2023-03-01T08:50:02;38.00;;;22.40;;
42964;SDS011;28604;51.204;22.552;2023-03-01T08:52:29;34.85;;;21.27;;
42964;SDS011;28604;51.204;22.552;2023-03-01T08:54:55;34.03;;;21.20;;
42964;SDS011;28604;51.204;22.552;2023-03-01T08:57:22;34.03;;;19.90;;
42964;SDS011;28604;51.204;22.552;2023-03-01T08:59:48;34.60;;;19.23;;
42964;SDS011;28604;51.204;22.552;2023-03-01T09:02:15;34.78;;;20.42;;
42964;SDS011;28604;51.204;22.552;2023-03-01T09:04:42;33.95;;;20.98;;
42964;SDS011;28604;51.204;22.552;2023-03-01T09:07:09;31.00;;;20.48;;
42964;SDS011;28604;51.204;22.552;2023-03-01T09:09:35;36.03;;;20.92;;
42964;SDS011;28604;51.204;22.552;2023-03-01T09:12:02;34.85;;;21.20;;
42964;SDS011;28604;51.204;22.552;2023-03-01T09:14:29;33.03;;;20.70;;
42964;SDS011;28604;51.204;22.552;2023-03-01T09:16:55;33.90;;;19.55;;
42964;SDS011;28604;51.204;22.552;2023-03-01T09:19:22;38.47;;;20.52;;
42964;SDS011;28604;51.204;22.552;2023-03-01T09:21:48;33.75;;;18.98;;
42964;SDS011;28604;51.204;22.552;2023-03-01T09:24:18;28.10;;;17.67;;
42964;SDS011;28604;51.204;22.552;2023-03-01T09:26:48;26.10;;;17.42;;
42964;SDS011;28604;51.204;22.552;2023-03-01T09:29:17;29.38;;;17.85;;
42964;SDS011;28604;51.204;22.552;2023-03-01T09:31:44;24.38;;;16.00;;
42964;SDS011;28604;51.204;22.552;2023-03-01T09:34:10;26.77;;;16.67;;
42964;SDS011;28604;51.204;22.552;2023-03-01T09:36:36;26.38;;;17.02;;
42964;SDS011;28604;51.204;22.552;2023-03-01T09:39:02;23.10;;;15.40;;
42964;SDS011;28604;51.204;22.552;2023-03-01T09:46:56;24.27;;;14.75;;
42964;SDS011;28604;51.204;22.552;2023-03-01T09:49:30;21.27;;;14.93;;
42964;SDS011;28604;51.204;22.552;2023-03-01T09:52:00;18.92;;;13.35;;
42964;SDS011;28604;51.204;22.552;2023-03-01T09:54:37;23.20;;;13.57;;
42964;SDS011;28604;51.204;22.552;2023-03-01T09:57:11;21.23;;;14.50;;
42964;SDS011;28604;51.204;22.552;2023-03-01T10:02:41;20.58;;;12.98;;
42964;SDS011;28604;51.204;22.552;2023-03-01T10:10:56;19.80;;;14.50;;
42964;SDS011;28604;51.204;22.552;2023-03-01T10:13:32;23.48;;;15.10;;
42964;SDS011;28604;51.204;22.552;2023-03-01T10:16:03;23.77;;;16.23;;
42964;SDS011;28604;51.204;22.552;2023-03-01T10:18:37;24.58;;;15.60;;
42964;SDS011;28604;51.204;22.552;2023-03-01T10:21:12;24.35;;;15.00;;
42964;SDS011;28604;51.204;22.552;2023-03-01T10:23:43;24.17;;;15.88;;
42964;SDS011;28604;51.204;22.552;2023-03-01T10:26:12;23.42;;;14.77;;
42964;SDS011;28604;51.204;22.552;2023-03-01T10:31:38;26.05;;;15.70;;
42964;SDS011;28604;51.204;22.552;2023-03-01T10:34:09;23.83;;;14.98;;
42964;SDS011;28604;51.204;22.552;2023-03-01T10:36:38;26.08;;;16.30;;
42964;SDS011;28604;51.204;22.552;2023-03-01T10:39:19;25.27;;;16.70;;
42964;SDS011;28604;51.204;22.552;2023-03-01T10:47:24;24.77;;;15.05;;
42964;SDS011;28604;51.204;22.552;2023-03-01T10:52:23;21.55;;;14.35;;
42964;SDS011;28604;51.204;22.552;2023-03-01T10:55:02;22.42;;;15.07;;
42964;SDS011;28604;51.204;22.552;2023-03-01T10:57:45;20.45;;;14.52;;
42964;SDS011;28604;51.204;22.552;2023-03-01T11:00:16;19.65;;;14.07;;
42964;SDS011;28604;51.204;22.552;2023-03-01T11:02:49;23.67;;;13.05;;
42964;SDS011;28604;51.204;22.552;2023-03-01T11:05:18;27.17;;;15.17;;
42964;SDS011;28604;51.204;22.552;2023-03-01T11:07:56;22.02;;;14.98;;
42964;SDS011;28604;51.204;22.552;2023-03-01T11:10:29;23.65;;;14.32;;
42964;SDS011;28604;51.204;22.552;2023-03-01T11:13:17;19.17;;;13.48;;
42964;SDS011;28604;51.204;22.552;2023-03-01T11:15:58;21.73;;;14.07;;
42964;SDS011;28604;51.204;22.552;2023-03-01T11:18:25;24.23;;;14.85;;
42964;SDS011;28604;51.204;22.552;2023-03-01T11:20:53;29.48;;;16.27;;
42964;SDS011;28604;51.204;22.552;2023-03-01T11:23:20;24.17;;;15.15;;
42964;SDS011;28604;51.204;22.552;2023-03-01T11:25:55;20.60;;;13.70;;
42964;SDS011;28604;51.204;22.552;2023-03-01T11:28:23;21.17;;;14.57;;
42964;SDS011;28604;51.204;22.552;2023-03-01T11:30:53;22.15;;;14.45;;
42964;SDS011;28604;51.204;22.552;2023-03-01T11:36:06;24.42;;;14.65;;
42964;SDS011;28604;51.204;22.552;2023-03-01T11:38:55;30.50;;;15.65;;
42964;SDS011;28604;51.204;22.552;2023-03-01T11:41:26;19.17;;;13.15;;
42964;SDS011;28604;51.204;22.552;2023-03-01T11:44:03;19.60;;;13.55;;
42964;SDS011;28604;51.204;22.552;2023-03-01T12:03:01;20.58;;;13.43;;
42964;SDS011;28604;51.204;22.552;2023-03-01T12:05:49;21.33;;;13.07;;
42964;SDS011;28604;51.204;22.552;2023-03-01T12:11:30;20.02;;;14.10;;
42964;SDS011;28604;51.204;22.552;2023-03-01T12:16:56;20.38;;;13.07;;
42964;SDS011;28604;51.204;22.552;2023-03-01T12:19:54;18.98;;;11.95;;
42964;SDS011;28604;51.204;22.552;2023-03-01T12:33:57;16.45;;;10.85;;
42964;SDS011;28604;51.204;22.552;2023-03-01T12:36:49;19.73;;;12.00;;
42964;SDS011;28604;51.204;22.552;2023-03-01T12:50:51;15.93;;;10.52;;
42964;SDS011;28604;51.204;22.552;2023-03-01T12:53:30;19.77;;;11.38;;
42964;SDS011;28604;51.204;22.552;2023-03-01T12:56:05;20.20;;;12.05;;
42964;SDS011;28604;51.204;22.552;2023-03-01T12:58:45;21.27;;;11.90;;
42964;SDS011;28604;51.204;22.552;2023-03-01T13:04:40;21.27;;;12.73;;
42964;SDS011;28604;51.204;22.552;2023-03-01T13:17:49;17.02;;;12.18;;
42964;SDS011;28604;51.204;22.552;2023-03-01T13:20:23;22.60;;;11.55;;
42964;SDS011;28604;51.204;22.552;2023-03-01T13:23:13;23.83;;;13.50;;
42964;SDS011;28604;51.204;22.552;2023-03-01T13:28:39;19.08;;;12.27;;
42964;SDS011;28604;51.204;22.552;2023-03-01T13:31:09;28.45;;;13.60;;
42964;SDS011;28604;51.204;22.552;2023-03-01T13:33:42;19.98;;;12.55;;
42964;SDS011;28604;51.204;22.552;2023-03-01T13:36:10;18.20;;;12.13;;
42964;SDS011;28604;51.204;22.552;2023-03-01T13:38:58;18.77;;;13.27;;
42964;SDS011;28604;51.204;22.552;2023-03-01T13:46:59;17.23;;;12.05;;
42964;SDS011;28604;51.204;22.552;2023-03-01T13:50:15;22.33;;;12.73;;
42964;SDS011;28604;51.204;22.552;2023-03-01T13:52:36;17.63;;;11.18;;
42964;SDS011;28604;51.204;22.552;2023-03-01T13:57:48;18.55;;;11.60;;
42964;SDS011;28604;51.204;22.552;2023-03-01T14:02:59;19.80;;;12.30;;
42964;SDS011;28604;51.204;22.552;2023-03-01T14:05:43;19.08;;;11.30;;
42964;SDS011;28604;51.204;22.552;2023-03-01T14:08:24;16.58;;;12.00;;
42964;SDS011;28604;51.204;22.552;2023-03-01T14:10:54;20.88;;;12.13;;
42964;SDS011;28604;51.204;22.552;2023-03-01T14:19:54;20.17;;;11.68;;
42964;SDS011;28604;51.204;22.552;2023-03-01T14:22:23;18.30;;;12.13;;
42964;SDS011;28604;51.204;22.552;2023-03-01T14:27:23;20.35;;;12.15;;
42964;SDS011;28604;51.204;22.552;2023-03-01T14:30:12;21.50;;;12.98;;
42964;SDS011;28604;51.204;22.552;2023-03-01T14:32:51;20.50;;;12.85;;
42964;SDS011;28604;51.204;22.552;2023-03-01T14:35:23;24.75;;;12.50;;
42964;SDS011;28604;51.204;22.552;2023-03-01T14:37:51;20.38;;;12.32;;
42964;SDS011;28604;51.204;22.552;2023-03-01T14:40:25;21.15;;;12.57;;
42964;SDS011;28604;51.204;22.552;2023-03-01T14:42:54;23.40;;;12.38;;
42964;SDS011;28604;51.204;22.552;2023-03-01T14:45:22;21.40;;;12.38;;
42964;SDS011;28604;51.204;22.552;2023-03-01T14:47:51;21.70;;;11.82;;
42964;SDS011;28604;51.204;22.552;2023-03-01T14:50:25;22.40;;;12.85;;
42964;SDS011;28604;51.204;22.552;2023-03-01T14:52:54;21.90;;;13.57;;
42964;SDS011;28604;51.204;22.552;2023-03-01T14:55:34;23.45;;;13.65;;
42964;SDS011;28604;51.204;22.552;2023-03-01T14:58:02;25.17;;;12.40;;
42964;SDS011;28604;51.204;22.552;2023-03-01T15:00:31;23.10;;;12.40;;
42964;SDS011;28604;51.204;22.552;2023-03-01T15:03:07;23.60;;;12.30;;
42964;SDS011;28604;51.204;22.552;2023-03-01T15:05:45;23.17;;;13.63;;
42964;SDS011;28604;51.204;22.552;2023-03-01T15:08:18;19.80;;;13.18;;
42964;SDS011;28604;51.204;22.552;2023-03-01T15:10:59;21.40;;;13.40;;
42964;SDS011;28604;51.204;22.552;2023-03-01T15:13:41;26.17;;;14.90;;
42964;SDS011;28604;51.204;22.552;2023-03-01T15:16:10;23.00;;;13.35;;
42964;SDS011;28604;51.204;22.552;2023-03-01T15:18:37;25.45;;;14.35;;
42964;SDS011;28604;51.204;22.552;2023-03-01T15:21:30;24.90;;;14.00;;
42964;SDS011;28604;51.204;22.552;2023-03-01T15:23:57;27.45;;;14.93;;
42964;SDS011;28604;51.204;22.552;2023-03-01T15:26:49;29.83;;;17.58;;
42964;SDS011;28604;51.204;22.552;2023-03-01T15:29:24;30.58;;;18.00;;
42964;SDS011;28604;51.204;22.552;2023-03-01T15:32:20;40.88;;;18.30;;
42964;SDS011;28604;51.204;22.552;2023-03-01T15:35:00;41.38;;;20.02;;
42964;SDS011;28604;51.204;22.552;2023-03-01T15:37:47;34.80;;;18.70;;
42964;SDS011;28604;51.204;22.552;2023-03-01T15:43:00;94.93;;;39.08;;
42964;SDS011;28604;51.204;22.552;2023-03-01T15:45:28;200.27;;;86.25;;
42964;SDS011;28604;51.204;22.552;2023-03-01T15:47:56;170.90;;;80.50;;
42964;SDS011;28604;51.204;22.552;2023-03-01T15:50:27;138.90;;;63.80;;
42964;SDS011;28604;51.204;22.552;2023-03-01T15:52:55;77.25;;;36.53;;
42964;SDS011;28604;51.204;22.552;2023-03-01T15:55:24;57.80;;;27.45;;
42964;SDS011;28604;51.204;22.552;2023-03-01T16:00:46;41.10;;;19.48;;
42964;SDS011;28604;51.204;22.552;2023-03-01T16:03:14;42.13;;;20.65;;
42964;SDS011;28604;51.204;22.552;2023-03-01T16:08:13;60.00;;;28.40;;
42964;SDS011;28604;51.204;22.552;2023-03-01T16:10:40;52.35;;;25.42;;
42964;SDS011;28604;51.204;22.552;2023-03-01T16:13:10;52.88;;;24.52;;
42964;SDS011;28604;51.204;22.552;2023-03-01T16:15:37;55.28;;;26.42;;
42964;SDS011;28604;51.204;22.552;2023-03-01T16:18:03;60.22;;;29.63;;
42964;SDS011;28604;51.204;22.552;2023-03-01T16:20:35;60.60;;;28.58;;
42964;SDS011;28604;51.204;22.552;2023-03-01T16:23:02;70.18;;;29.13;;
42964;SDS011;28604;51.204;22.552;2023-03-01T16:25:30;61.25;;;26.88;;
42964;SDS011;28604;51.204;22.552;2023-03-01T16:27:57;68.38;;;28.55;;
42964;SDS011;28604;51.204;22.552;2023-03-01T16:30:26;76.90;;;36.03;;
42964;SDS011;28604;51.204;22.552;2023-03-01T16:32:52;88.32;;;39.30;;
42964;SDS011;28604;51.204;22.552;2023-03-01T16:35:19;86.88;;;39.38;;
42964;SDS011;28604;51.204;22.552;2023-03-01T16:37:46;79.53;;;35.55;;
42964;SDS011;28604;51.204;22.552;2023-03-01T16:40:20;75.10;;;32.72;;
42964;SDS011;28604;51.204;22.552;2023-03-01T16:42:48;61.22;;;29.23;;
42964;SDS011;28604;51.204;22.552;2023-03-01T16:45:15;58.83;;;28.27;;